Time;durP1;ratioP1;P1;durP2;ratioP2;P2;SDS_P1;SDS_P2;PMS_P1;PMS_P2;Temp;Humidity;BMP_temperature;BMP_pressure;BME280_temperature;BME280_humidity;BME280_pressure;Samples;Min_cycle;Max_cycle;Signal;HPM_P1;HPM_P2
2022/06/11 00:02:17;;;;;;;0.80;0.80;;;13.80;99.90;;;;;;4078369;29;20415;-55
2022/06/11 00:04:39;;;;;;;0.90;0.90;;;13.80;99.90;;;;;;4088717;29;20568;-54
2022/06/11 00:07:04;;;;;;;1.52;0.90;;;13.60;99.90;;;;;;4094149;29;20105;-54
2022/06/11 00:09:27;;;;;;;0.75;0.75;;;13.40;99.90;;;;;;4094159;29;20584;-54
2022/06/11 00:11:51;;;;;;;0.80;0.80;;;13.40;99.90;;;;;;4135084;28;20136;-55
2022/06/11 00:14:13;;;;;;;0.80;0.80;;;13.70;99.90;;;;;;4121931;28;20547;-55
2022/06/11 00:16:34;;;;;;;0.80;0.80;;;13.70;99.90;;;;;;4094085;29;20066;-55
2022/06/11 00:18:57;;;;;;;0.80;0.80;;;13.80;99.90;;;;;;4091235;29;20127;-51
2022/06/11 00:21:19;;;;;;;;;;;13.80;99.90;;;;;;4078474;29;20050;-54
2022/06/11 00:23:42;;;;;;;0.73;0.73;;;13.80;99.90;;;;;;4087955;29;20025;-54
2022/06/11 00:26:04;;;;;;;0.80;0.80;;;13.70;99.90;;;;;;4094010;29;20042;-55
2022/06/11 00:28:25;;;;;;;1.38;0.80;;;13.70;99.90;;;;;;4094220;29;20093;-53
2022/06/11 00:30:47;;;;;;;1.27;0.80;;;13.70;99.90;;;;;;4093893;29;20050;-55
2022/06/11 00:33:10;;;;;;;0.80;0.80;;;13.70;99.90;;;;;;4094278;29;20101;-54
2022/06/11 00:35:33;;;;;;;0.73;0.73;;;13.60;99.90;;;;;;4093757;29;20058;-53
2022/06/11 00:37:54;;;;;;;0.80;0.80;;;13.50;99.90;;;;;;4093910;29;20209;-53
2022/06/11 00:40:18;;;;;;;0.90;0.90;;;13.40;99.90;;;;;;4079564;29;20158;-55
2022/06/11 00:42:40;;;;;;;0.80;0.80;;;13.50;99.90;;;;;;4086334;29;20461;-55
2022/06/11 00:45:31;;;;;;;0.80;0.80;;;13.50;99.90;;;;;;4079729;29;20419;-54
2022/06/11 00:47:59;;;;;;;0.80;0.80;;;13.70;99.90;;;;;;4092835;29;20768;-55
2022/06/11 00:50:37;;;;;;;1.50;0.80;;;13.80;99.90;;;;;;4087552;29;20059;-54
2022/06/11 00:52:58;;;;;;;0.70;0.70;;;13.80;99.90;;;;;;4093383;29;20431;-54
2022/06/11 00:55:31;;;;;;;0.80;0.80;;;13.70;99.90;;;;;;4093379;29;20529;-55
2022/06/11 00:58:04;;;;;;;0.90;0.90;;;13.60;99.90;;;;;;4092727;29;20054;-52
2022/06/11 01:00:41;;;;;;;1.13;0.80;;;13.60;99.90;;;;;;4093531;29;20352;-55
2022/06/11 01:03:02;;;;;;;0.70;0.70;;;13.40;99.90;;;;;;4079354;29;20059;-53
2022/06/11 01:05:29;;;;;;;0.80;0.80;;;13.20;99.90;;;;;;4089427;29;20126;-53
2022/06/11 01:08:14;;;;;;;2.97;0.85;;;13.10;99.90;;;;;;4087725;29;20086;-54
2022/06/11 01:11:01;;;;;;;3.13;0.90;;;13.00;99.90;;;;;;4093818;29;20089;-54
2022/06/11 01:14:00;;;;;;;0.80;0.80;;;13.00;99.90;;;;;;4080783;29;20126;-54
2022/06/11 01:17:00;;;;;;;0.80;0.80;;;13.20;99.90;;;;;;4079983;29;20059;-54
2022/06/11 01:19:59;;;;;;;2.30;0.80;;;13.30;99.90;;;;;;4080923;29;20058;-54
2022/06/11 01:22:50;;;;;;;1.70;0.88;;;13.40;99.90;;;;;;4079999;29;20101;-54
2022/06/11 01:25:50;;;;;;;7.32;0.90;;;13.30;99.90;;;;;;4080222;29;20055;-54
2022/06/11 01:28:42;;;;;;;0.80;0.80;;;13.40;99.90;;;;;;4080604;29;20058;-53
2022/06/11 01:31:22;;;;;;;0.90;0.90;;;13.30;99.90;;;;;;4092791;29;20517;-53
2022/06/11 01:34:10;;;;;;;1.50;0.90;;;13.40;99.90;;;;;;4095927;29;20062;-54
2022/06/11 01:36:44;;;;;;;0.80;0.80;;;13.50;99.90;;;;;;4095751;29;20114;-52
2022/06/11 01:39:24;;;;;;;0.80;0.80;;;13.50;99.90;;;;;;4079816;29;20062;-52
2022/06/11 01:42:04;;;;;;;0.80;0.80;;;13.40;99.90;;;;;;4093891;29;20154;-53
2022/06/11 01:44:32;;;;;;;0.90;0.90;;;13.30;99.90;;;;;;4093412;29;20105;-53
2022/06/11 01:46:54;;;;;;;0.80;0.80;;;13.30;99.90;;;;;;4095825;29;20066;-54
2022/06/11 01:49:21;;;;;;;0.80;0.80;;;13.20;99.90;;;;;;4094625;29;20062;-53
2022/06/11 01:52:20;;;;;;;1.52;0.88;;;13.20;99.90;;;;;;4096005;29;20109;-54
2022/06/11 01:55:03;;;;;;;1.05;0.80;;;13.10;99.90;;;;;;4080036;29;20054;-52
2022/06/11 01:57:45;;;;;;;0.90;0.90;;;13.00;99.90;;;;;;4079741;29;20090;-53
2022/06/11 02:00:22;;;;;;;2.28;0.85;;;12.90;99.90;;;;;;4094459;29;20054;-54
2022/06/11 02:02:59;;;;;;;2.45;0.90;;;12.90;99.90;;;;;;4095358;29;20058;-54
2022/06/11 02:06:02;;;;;;;0.90;0.90;;;12.90;99.90;;;;;;4095529;29;20518;-53
2022/06/11 02:08:41;;;;;;;2.35;0.90;;;12.80;99.90;;;;;;4089616;29;20066;-54
2022/06/11 02:11:21;;;;;;;0.85;0.80;;;12.70;99.90;;;;;;4099098;28;20132;-54
2022/06/11 02:14:03;;;;;;;1.40;0.90;;;12.80;99.90;;;;;;4095122;29;20116;-53
2022/06/11 02:16:40;;;;;;;0.80;0.80;;;12.80;99.90;;;;;;4080000;29;20058;-53
2022/06/11 02:19:14;;;;;;;1.50;0.85;;;12.90;99.90;;;;;;4093598;29;20061;-53
2022/06/11 02:21:43;;;;;;;0.80;0.80;;;13.10;99.90;;;;;;4095566;29;20062;-52
2022/06/11 02:24:12;;;;;;;0.93;0.90;;;13.20;99.90;;;;;;4094817;29;20050;-54
2022/06/11 02:26:40;;;;;;;1.05;0.93;;;13.30;99.90;;;;;;4095711;29;20574;-54
2022/06/11 02:29:03;;;;;;;2.58;0.90;;;13.30;99.90;;;;;;4079830;29;20054;-55
2022/06/11 02:31:32;;;;;;;0.80;0.80;;;13.30;99.90;;;;;;4079510;29;20439;-54
2022/06/11 02:33:53;;;;;;;0.80;0.80;;;13.20;99.90;;;;;;4079522;29;20125;-53
2022/06/11 02:36:20;;;;;;;1.05;0.90;;;13.10;99.90;;;;;;4079061;29;20058;-53
2022/06/11 02:38:41;;;;;;;1.45;0.80;;;13.10;99.90;;;;;;4079492;29;20530;-55
2022/06/11 02:41:07;;;;;;;0.90;0.90;;;13.00;99.90;;;;;;4079555;29;20051;-52
2022/06/11 02:43:29;;;;;;;0.90;0.90;;;12.90;99.90;;;;;;4085109;29;20141;-49
2022/06/11 02:45:50;;;;;;;0.98;0.90;;;12.80;99.90;;;;;;4095145;29;20050;-53
2022/06/11 02:48:12;;;;;;;1.33;1.30;;;12.70;99.90;;;;;;4095083;29;20105;-53
2022/06/11 02:50:35;;;;;;;0.80;0.80;;;12.60;99.90;;;;;;4095312;29;20101;-51
2022/06/11 02:52:57;;;;;;;;;;;12.50;99.90;;;;;;4095599;29;20062;-53
2022/06/11 02:55:18;;;;;;;1.23;1.00;;;12.50;99.90;;;;;;4095378;29;19976;-53
2022/06/11 02:57:42;;;;;;;2.38;0.90;;;12.60;99.90;;;;;;4095083;29;20058;-54
2022/06/11 03:00:05;;;;;;;0.88;0.88;;;12.70;99.90;;;;;;4095071;29;20399;-54
2022/06/11 03:02:26;;;;;;;0.90;0.90;;;12.90;99.90;;;;;;4094601;29;20058;-52
2022/06/11 03:04:48;;;;;;;0.80;0.80;;;13.00;99.90;;;;;;4094909;29;20561;-53
2022/06/11 03:07:10;;;;;;;0.90;0.90;;;13.20;99.90;;;;;;4094599;29;20564;-54
2022/06/11 03:09:33;;;;;;;0.90;0.90;;;13.40;99.90;;;;;;4094742;29;20120;-53
2022/06/11 03:11:55;;;;;;;;;;;13.40;99.90;;;;;;4147559;28;20111;-53
2022/06/11 03:14:16;;;;;;;0.88;0.88;;;13.40;99.90;;;;;;4178217;28;19934;-54
2022/06/11 03:16:38;;;;;;;0.83;0.83;;;13.40;99.90;;;;;;4178130;28;20118;-54
2022/06/11 03:19:03;;;;;;;0.93;0.93;;;13.30;99.90;;;;;;4079343;29;20086;-53
2022/06/11 03:21:24;;;;;;;0.80;0.80;;;13.40;99.90;;;;;;4078898;29;20136;-54
2022/06/11 03:23:46;;;;;;;0.90;0.90;;;13.50;99.90;;;;;;4079004;29;20082;-54
2022/06/11 03:26:08;;;;;;;1.63;0.80;;;13.40;99.90;;;;;;4078373;29;20062;-53
2022/06/11 03:28:30;;;;;;;0.90;0.90;;;13.50;99.90;;;;;;4078781;29;20102;-53
2022/06/11 03:30:53;;;;;;;0.90;0.90;;;13.50;99.90;;;;;;4078729;29;20062;-53
2022/06/11 03:33:14;;;;;;;2.38;0.90;;;13.50;99.90;;;;;;4078739;29;20130;-53
2022/06/11 03:35:36;;;;;;;0.80;0.80;;;13.40;99.90;;;;;;4078493;29;20067;-54
2022/06/11 03:37:58;;;;;;;2.95;0.85;;;13.40;99.90;;;;;;4078558;29;20055;-53
2022/06/11 03:40:20;;;;;;;0.80;0.80;;;13.40;99.90;;;;;;4089066;29;20101;-54
2022/06/11 03:42:42;;;;;;;0.80;0.80;;;13.40;99.90;;;;;;4094688;29;20317;-54
2022/06/11 03:45:06;;;;;;;1.40;1.05;;;13.40;99.90;;;;;;4079085;29;20058;-53
2022/06/11 03:47:28;;;;;;;1.27;0.90;;;13.40;99.90;;;;;;4078511;29;20139;-54
2022/06/11 03:49:50;;;;;;;0.93;0.90;;;13.40;99.90;;;;;;4087929;29;20229;-53
2022/06/11 03:52:12;;;;;;;1.52;0.88;;;13.50;99.90;;;;;;4091006;29;20054;-54
2022/06/11 03:54:35;;;;;;;0.80;0.80;;;13.60;99.90;;;;;;4078589;29;20098;-51
2022/06/11 03:56:56;;;;;;;2.58;1.65;;;13.60;99.90;;;;;;4093832;29;20066;-53
2022/06/11 03:59:19;;;;;;;0.90;0.90;;;13.50;99.90;;;;;;4093987;29;20058;-53
2022/06/11 04:01:42;;;;;;;0.90;0.90;;;13.40;99.90;;;;;;4094325;29;20725;-53
2022/06/11 04:04:10;;;;;;;0.85;0.85;;;13.30;99.90;;;;;;4094454;29;20062;-53
2022/06/11 04:06:42;;;;;;;0.90;0.90;;;13.40;99.90;;;;;;4077729;29;20514;-52
2022/06/11 04:09:08;;;;;;;0.95;0.90;;;13.50;99.90;;;;;;4088985;29;20062;-53
2022/06/11 04:11:30;;;;;;;0.90;0.90;;;13.60;99.90;;;;;;4106107;28;20058;-54
2022/06/11 04:13:54;;;;;;;3.20;0.90;;;13.70;99.90;;;;;;4094505;29;20073;-54
2022/06/11 04:16:44;;;;;;;1.75;0.90;;;13.70;99.90;;;;;;4078439;29;20090;-54
2022/06/11 04:19:12;;;;;;;1.65;0.90;;;13.70;99.90;;;;;;4094308;29;20130;-53
2022/06/11 04:21:35;;;;;;;0.80;0.80;;;13.70;99.90;;;;;;4085719;29;20136;-51
2022/06/11 04:23:59;;;;;;;2.05;0.90;;;13.60;99.90;;;;;;4078128;29;20059;-54
2022/06/11 04:26:25;;;;;;;0.85;0.85;;;13.60;99.90;;;;;;4077933;29;20086;-53
2022/06/11 04:28:48;;;;;;;1.30;0.82;;;13.50;99.90;;;;;;4093219;29;20117;-54
2022/06/11 04:31:10;;;;;;;0.88;0.88;;;13.50;99.90;;;;;;4085383;29;20125;-53
2022/06/11 04:33:33;;;;;;;1.65;0.90;;;13.50;99.90;;;;;;4078439;29;20435;-53
2022/06/11 04:35:54;;;;;;;0.80;0.80;;;13.70;99.90;;;;;;4077935;28;20070;-54
2022/06/11 04:38:16;;;;;;;0.80;0.80;;;13.80;99.90;;;;;;4093864;29;20060;-53
2022/06/11 04:40:38;;;;;;;0.93;0.93;;;13.80;99.90;;;;;;4088805;29;20604;-52
2022/06/11 04:43:00;;;;;;;0.80;0.80;;;13.80;99.90;;;;;;4082476;29;20411;-53
2022/06/11 04:45:22;;;;;;;0.80;0.80;;;13.80;99.90;;;;;;4096764;29;20046;-54
2022/06/11 04:47:45;;;;;;;0.90;0.90;;;13.90;99.90;;;;;;4096835;29;20087;-54
2022/06/11 04:50:09;;;;;;;1.10;1.10;;;14.00;99.90;;;;;;4096716;29;20620;-51
2022/06/11 04:52:30;;;;;;;1.52;0.90;;;14.10;99.90;;;;;;4096798;29;20113;-53
2022/06/11 04:54:53;;;;;;;0.90;0.90;;;14.20;99.90;;;;;;4096441;29;20077;-53
2022/06/11 04:57:15;;;;;;;1.52;0.85;;;14.20;99.90;;;;;;4083813;29;20585;-53
2022/06/11 04:59:38;;;;;;;0.82;0.82;;;14.20;99.90;;;;;;4087345;29;20069;-54
2022/06/11 05:02:00;;;;;;;0.80;0.80;;;14.30;99.90;;;;;;4087547;29;20104;-52
2022/06/11 05:04:22;;;;;;;1.13;0.80;;;14.40;99.90;;;;;;4080696;29;20058;-54
2022/06/11 05:06:46;;;;;;;;;;;14.60;99.90;;;;;;4093268;29;20050;-52
2022/06/11 05:09:14;;;;;;;0.80;0.80;;;14.70;99.90;;;;;;4090490;29;19972;-54
2022/06/11 05:11:36;;;;;;;2.92;0.90;;;15.00;99.90;;;;;;4096460;28;20157;-54
2022/06/11 05:13:58;;;;;;;1.48;1.38;;;15.00;99.90;;;;;;4096352;29;20124;-53
2022/06/11 05:16:20;;;;;;;0.80;0.80;;;14.90;99.90;;;;;;4096372;29;20097;-53
2022/06/11 05:18:42;;;;;;;0.90;0.90;;;14.80;99.90;;;;;;4096096;29;20058;-54
2022/06/11 05:21:04;;;;;;;1.60;0.83;;;14.90;99.90;;;;;;4096131;29;20410;-52
2022/06/11 05:23:26;;;;;;;2.05;0.88;;;15.10;99.90;;;;;;4081250;29;20279;-53
2022/06/11 05:25:48;;;;;;;2.35;0.80;;;15.20;99.90;;;;;;4092258;29;20458;-53
2022/06/11 05:28:17;;;;;;;0.80;0.80;;;15.30;99.90;;;;;;4096224;29;20534;-53
2022/06/11 05:30:38;;;;;;;0.90;0.90;;;15.40;99.90;;;;;;4096557;29;20139;-51
2022/06/11 05:33:00;;;;;;;0.80;0.80;;;15.50;99.90;;;;;;4095725;29;20157;-54
2022/06/11 05:35:26;;;;;;;21.88;2.53;;;15.60;99.90;;;;;;4091740;29;20414;-51
2022/06/11 05:37:49;;;;;;;0.90;0.90;;;15.70;99.90;;;;;;4094733;29;22474;-50
2022/06/11 05:40:18;;;;;;;0.90;0.90;;;16.00;99.90;;;;;;4095522;29;20101;-49
2022/06/11 05:42:40;;;;;;;1.33;1.23;;;16.20;99.90;;;;;;4079806;29;20544;-50
2022/06/11 05:45:02;;;;;;;0.80;0.80;;;16.40;99.90;;;;;;4092492;29;20057;-49
2022/06/11 05:47:26;;;;;;;1.90;0.73;;;16.40;99.90;;;;;;4096046;29;20058;-51
2022/06/11 05:49:52;;;;;;;1.52;0.80;;;16.60;99.90;;;;;;4094881;28;20422;-51
2022/06/11 05:52:18;;;;;;;1.02;0.70;;;16.70;99.90;;;;;;4144078;28;20137;-48
2022/06/11 05:54:41;;;;;;;1.05;0.80;;;16.90;99.90;;;;;;4104365;28;20058;-48
2022/06/11 05:57:05;;;;;;;2.08;0.80;;;17.40;99.90;;;;;;4093709;29;20486;-47
2022/06/11 05:59:30;;;;;;;0.70;0.70;;;18.00;99.90;;;;;;4095470;29;20462;-49
2022/06/11 06:01:55;;;;;;;0.70;0.70;;;18.50;99.90;;;;;;4095510;29;20438;-51
2022/06/11 06:04:17;;;;;;;0.80;0.80;;;18.80;99.90;;;;;;4095974;29;20576;-51
2022/06/11 06:06:39;;;;;;;0.60;0.60;;;19.00;99.90;;;;;;4095701;29;20129;-51
2022/06/11 06:09:03;;;;;;;2.25;0.63;;;19.30;99.90;;;;;;4079963;29;20110;-50
2022/06/11 06:11:26;;;;;;;0.77;0.60;;;19.50;99.90;;;;;;4126930;28;20056;-47
2022/06/11 06:13:47;;;;;;;0.50;0.50;;;19.90;99.90;;;;;;4111188;28;20062;-51
2022/06/11 06:16:10;;;;;;;0.60;0.60;;;20.10;99.90;;;;;;4095480;29;20120;-48
2022/06/11 06:18:32;;;;;;;0.60;0.60;;;20.50;99.90;;;;;;4095040;28;20109;-49
2022/06/11 06:20:59;;;;;;;0.50;0.50;;;20.70;99.90;;;;;;4079455;29;20071;-50
2022/06/11 06:23:21;;;;;;;0.60;0.60;;;20.70;99.90;;;;;;4091915;29;20186;-51
2022/06/11 06:25:43;;;;;;;0.50;0.50;;;20.70;99.90;;;;;;4088870;29;20046;-49
2022/06/11 06:28:05;;;;;;;0.50;0.50;;;20.90;99.90;;;;;;4083382;29;20341;-50
2022/06/11 06:30:27;;;;;;;0.60;0.60;;;21.40;99.90;;;;;;4088392;29;20062;-47
2022/06/11 06:32:49;;;;;;;0.50;0.50;;;21.60;99.90;;;;;;4091263;29;20813;-50
2022/06/11 06:35:11;;;;;;;0.50;0.50;;;21.80;99.90;;;;;;4094999;29;20112;-50
2022/06/11 06:37:33;;;;;;;1.45;0.50;;;21.80;99.90;;;;;;4094402;29;20093;-50
2022/06/11 06:39:55;;;;;;;0.55;0.55;;;22.10;99.90;;;;;;4095517;29;20050;-49
2022/06/11 06:42:17;;;;;;;0.50;0.50;;;22.20;99.90;;;;;;4095341;29;20510;-49
2022/06/11 06:44:39;;;;;;;0.60;0.60;;;22.50;99.90;;;;;;4090454;29;20050;-49
2022/06/11 06:47:01;;;;;;;0.50;0.50;;;22.70;99.90;;;;;;4093766;29;20158;-47
2022/06/11 06:49:25;;;;;;;0.40;0.40;;;22.80;99.90;;;;;;4081699;29;20106;-51
2022/06/11 06:51:47;;;;;;;0.50;0.50;;;22.80;99.90;;;;;;4091868;29;20055;-50
2022/06/11 06:54:09;;;;;;;0.50;0.50;;;22.80;99.90;;;;;;4081578;29;20062;-50
2022/06/11 06:56:33;;;;;;;1.85;0.50;;;22.80;99.90;;;;;;4079433;29;20302;-51
2022/06/11 06:58:55;;;;;;;0.88;0.60;;;23.20;99.80;;;;;;4079032;29;20051;-47
2022/06/11 07:01:16;;;;;;;0.50;0.50;;;23.50;98.60;;;;;;4088508;29;20058;-51
2022/06/11 07:03:41;;;;;;;1.02;0.50;;;23.60;99.40;;;;;;4087359;29;20100;-50
2022/06/11 07:06:23;;;;;;;1.00;0.50;;;23.90;99.90;;;;;;4093761;29;20132;-50
2022/06/11 07:08:45;;;;;;;0.50;0.50;;;23.90;98.00;;;;;;4092748;29;20074;-46
2022/06/11 07:11:07;;;;;;;0.50;0.50;;;23.80;97.50;;;;;;4097681;28;20066;-50
2022/06/11 07:13:29;;;;;;;0.43;0.43;;;24.00;97.10;;;;;;4093757;29;20057;-48
2022/06/11 07:15:57;;;;;;;0.40;0.40;;;24.00;96.20;;;;;;4090723;29;20070;-48
2022/06/11 07:18:45;;;;;;;3.17;0.50;;;23.90;96.60;;;;;;4082030;28;20562;-51
2022/06/11 07:21:14;;;;;;;2.50;0.40;;;24.30;97.00;;;;;;4158713;28;20225;-50
2022/06/11 07:23:40;;;;;;;3.92;0.95;;;24.40;96.30;;;;;;4158922;28;20088;-50
2022/06/11 07:26:11;;;;;;;0.40;0.40;;;24.90;96.40;;;;;;4159555;28;20064;-51
2022/06/11 07:28:56;;;;;;;0.75;0.40;;;25.20;94.80;;;;;;4157619;28;20080;-51
2022/06/11 07:31:17;;;;;;;3.63;0.80;;;25.70;95.60;;;;;;4159078;28;20051;-49
2022/06/11 07:33:42;;;;;;;0.43;0.40;;;25.70;95.00;;;;;;4158840;28;20060;-50
2022/06/11 07:36:04;;;;;;;1.17;0.30;;;26.00;94.20;;;;;;4150659;28;20089;-49
2022/06/11 07:38:26;;;;;;;0.40;0.40;;;26.40;93.80;;;;;;4145034;28;20100;-51
2022/06/11 07:40:48;;;;;;;0.40;0.40;;;26.50;94.00;;;;;;4158680;28;20135;-51
2022/06/11 07:43:10;;;;;;;1.40;0.40;;;26.70;95.60;;;;;;4157971;28;20052;-51
2022/06/11 07:45:35;;;;;;;0.30;0.30;;;26.60;92.10;;;;;;4151064;28;20053;-51
2022/06/11 07:47:57;;;;;;;0.40;0.40;;;26.10;92.30;;;;;;4143068;28;20116;-52
2022/06/11 07:50:20;;;;;;;0.65;0.40;;;26.00;92.80;;;;;;4158923;28;20055;-51
2022/06/11 07:52:42;;;;;;;0.30;0.30;;;25.80;92.60;;;;;;4147401;28;20076;-50
2022/06/11 07:55:04;;;;;;;0.40;0.40;;;26.10;92.40;;;;;;4148155;28;20052;-51
2022/06/11 07:57:27;;;;;;;0.40;0.40;;;26.00;92.30;;;;;;4151322;28;20131;-50
2022/06/11 07:59:48;;;;;;;0.30;0.30;;;26.10;91.60;;;;;;4154326;28;20464;-50
2022/06/11 08:02:09;;;;;;;0.40;0.40;;;26.40;94.60;;;;;;4160722;28;20140;-51
2022/06/11 08:04:32;;;;;;;0.40;0.40;;;26.00;91.00;;;;;;4160610;28;20087;-51
2022/06/11 08:06:56;;;;;;;1.13;0.40;;;26.10;91.20;;;;;;4160912;28;20111;-51
2022/06/11 08:09:18;;;;;;;0.38;0.38;;;26.50;91.90;;;;;;4155563;28;20048;-51
2022/06/11 08:11:40;;;;;;;0.30;0.30;;;27.10;91.60;;;;;;4156392;28;20048;-50
2022/06/11 08:14:02;;;;;;;3.20;0.40;;;27.30;91.10;;;;;;4164475;28;20099;-51
2022/06/11 08:16:24;;;;;;;1.40;0.30;;;27.50;91.70;;;;;;4163661;28;20056;-51
2022/06/11 08:18:46;;;;;;;0.32;0.32;;;27.30;91.00;;;;;;4162869;28;20064;-51
2022/06/11 08:21:08;;;;;;;0.75;0.30;;;27.40;90.60;;;;;;4159687;28;20084;-50
2022/06/11 08:23:31;;;;;;;0.30;0.30;;;27.50;90.90;;;;;;4164445;28;20048;-49
2022/06/11 08:25:54;;;;;;;0.63;0.40;;;27.40;90.20;;;;;;4157063;28;20084;-51
2022/06/11 08:28:17;;;;;;;;;;;27.70;90.70;;;;;;4163431;28;20523;-49
2022/06/11 08:30:40;;;;;;;0.40;0.40;;;27.80;91.40;;;;;;4164159;28;20005;-51
2022/06/11 08:33:01;;;;;;;;;;;27.20;89.10;;;;;;4164793;28;20049;-50
2022/06/11 08:35:26;;;;;;;0.40;0.40;;;27.70;91.00;;;;;;4134754;28;19928;-50
2022/06/11 08:37:49;;;;;;;0.57;0.40;;;27.10;90.00;;;;;;4080605;29;20058;-51
2022/06/11 08:40:23;;;;;;;0.30;0.30;;;27.10;90.70;;;;;;4090353;29;20146;-49
2022/06/11 08:42:49;;;;;;;0.30;0.30;;;27.30;91.40;;;;;;4092598;29;20144;-49
2022/06/11 08:45:19;;;;;;;0.30;0.30;;;27.30;90.30;;;;;;4093891;29;20529;-49
2022/06/11 08:47:47;;;;;;;1.75;0.40;;;27.70;88.30;;;;;;4080675;29;20273;-51
2022/06/11 08:50:14;;;;;;;3.30;0.40;;;27.30;86.70;;;;;;4088383;29;20521;-51
2022/06/11 08:52:36;;;;;;;1.10;0.38;;;27.60;91.10;;;;;;4096463;29;20062;-50
2022/06/11 08:55:00;;;;;;;1.05;0.30;;;28.10;88.10;;;;;;4096233;29;20062;-50
2022/06/11 08:57:36;;;;;;;0.40;0.40;;;28.00;89.60;;;;;;4095010;29;20612;-50
2022/06/11 09:00:02;;;;;;;0.38;0.38;;;28.30;88.50;;;;;;4095962;29;20055;-52
2022/06/11 09:02:45;;;;;;;0.30;0.30;;;28.20;88.50;;;;;;4095095;29;20472;-52
2022/06/11 09:05:12;;;;;;;0.40;0.40;;;28.10;88.80;;;;;;4095365;29;20049;-50
2022/06/11 09:07:57;;;;;;;0.65;0.30;;;27.50;87.10;;;;;;4096288;29;20054;-51
2022/06/11 09:10:58;;;;;;;0.45;0.40;;;27.40;88.30;;;;;;4112379;28;20073;-51
2022/06/11 09:13:34;;;;;;;1.27;0.30;;;27.50;87.80;;;;;;4083108;29;20058;-51
2022/06/11 09:16:06;;;;;;;0.30;0.30;;;27.40;86.70;;;;;;4095525;29;20054;-52
2022/06/11 09:18:45;;;;;;;0.90;0.40;;;27.20;87.10;;;;;;4089173;28;20142;-48
2022/06/11 09:21:30;;;;;;;0.32;0.32;;;27.40;85.90;;;;;;4094204;29;20053;-49
2022/06/11 09:24:10;;;;;;;1.42;0.40;;;27.30;88.20;;;;;;4093661;28;20135;-50
2022/06/11 09:26:37;;;;;;;0.57;0.40;;;27.20;87.60;;;;;;4090751;29;20061;-48
2022/06/11 09:29:20;;;;;;;0.40;0.40;;;27.70;86.80;;;;;;4091051;29;20132;-51
2022/06/11 09:32:04;;;;;;;0.83;0.30;;;27.60;84.70;;;;;;4090621;29;20050;-50
2022/06/11 09:34:32;;;;;;;0.45;0.32;;;27.80;87.50;;;;;;4092457;28;20055;-51
2022/06/11 09:37:13;;;;;;;0.30;0.30;;;27.60;87.30;;;;;;4094512;29;20046;-51
2022/06/11 09:40:11;;;;;;;0.30;0.30;;;27.90;84.70;;;;;;4092556;29;20135;-48
2022/06/11 09:42:57;;;;;;;0.45;0.45;;;27.90;86.00;;;;;;4086263;29;20136;-50
2022/06/11 09:45:32;;;;;;;0.40;0.40;;;27.70;85.00;;;;;;4085475;29;20514;-51
2022/06/11 09:48:19;;;;;;;0.32;0.32;;;27.40;83.90;;;;;;4093346;29;20407;-51
2022/06/11 09:51:03;;;;;;;0.30;0.30;;;27.80;86.00;;;;;;4094204;29;20419;-49
2022/06/11 09:53:40;;;;;;;0.30;0.30;;;28.00;87.90;;;;;;4079618;29;20117;-49
2022/06/11 09:56:33;;;;;;;0.30;0.30;;;27.70;84.80;;;;;;4083410;29;20053;-47
2022/06/11 09:59:17;;;;;;;0.68;0.30;;;27.50;85.60;;;;;;4095768;29;20465;-49
2022/06/11 10:02:07;;;;;;;0.30;0.30;;;27.90;85.70;;;;;;4079936;29;20553;-51
2022/06/11 10:04:34;;;;;;;0.43;0.40;;;27.50;82.80;;;;;;4082167;29;20062;-49
2022/06/11 10:07:09;;;;;;;0.40;0.40;;;27.20;83.90;;;;;;4094054;29;20418;-48
2022/06/11 10:09:47;;;;;;;0.40;0.40;;;26.80;84.10;;;;;;4091053;29;20137;-51
2022/06/11 10:12:27;;;;;;;0.45;0.40;;;27.10;85.00;;;;;;4103095;28;20050;-49
2022/06/11 10:14:59;;;;;;;0.40;0.40;;;27.10;84.20;;;;;;4093404;29;20053;-49
2022/06/11 10:17:50;;;;;;;0.30;0.30;;;27.20;86.40;;;;;;4093518;28;20109;-50
2022/06/11 10:20:24;;;;;;;0.30;0.30;;;27.20;85.20;;;;;;4093613;28;20045;-49
2022/06/11 10:22:56;;;;;;;0.90;0.30;;;27.50;85.40;;;;;;4090968;29;20403;-50
2022/06/11 10:25:47;;;;;;;0.30;0.30;;;27.70;83.40;;;;;;4091213;29;20109;-51
2022/06/11 10:28:17;;;;;;;0.32;0.32;;;28.00;84.30;;;;;;4092441;29;20337;-51
2022/06/11 10:30:52;;;;;;;0.30;0.30;;;28.00;85.20;;;;;;4093899;29;20485;-50
2022/06/11 10:33:37;;;;;;;0.30;0.30;;;28.20;85.90;;;;;;4095439;29;20066;-51
2022/06/11 10:36:03;;;;;;;0.30;0.30;;;28.10;86.70;;;;;;4087146;29;20581;-50
2022/06/11 10:39:11;;;;;;;0.30;0.30;;;28.10;83.30;;;;;;4086218;29;20070;-51
2022/06/11 10:41:47;;;;;;;0.43;0.30;;;28.30;86.70;;;;;;4170239;28;20051;-49
2022/06/11 10:44:16;;;;;;;0.30;0.30;;;28.70;86.00;;;;;;4174920;28;20048;-50
2022/06/11 10:46:38;;;;;;;1.15;0.25;;;29.20;86.90;;;;;;4148635;28;20129;-51
2022/06/11 10:48:59;;;;;;;0.38;0.20;;;29.00;83.70;;;;;;4175593;28;20129;-52
2022/06/11 10:51:30;;;;;;;0.30;0.30;;;28.70;83.40;;;;;;4173249;28;20080;-50
2022/06/11 10:54:16;;;;;;;0.30;0.30;;;29.00;82.90;;;;;;4167827;28;20051;-51
2022/06/11 10:56:47;;;;;;;0.30;0.30;;;29.10;83.20;;;;;;4175812;28;20087;-49
2022/06/11 10:59:19;;;;;;;0.30;0.30;;;29.30;85.90;;;;;;4176044;28;20115;-52
2022/06/11 11:01:44;;;;;;;;;;;29.40;85.20;;;;;;4176224;28;20052;-52
2022/06/11 11:04:15;;;;;;;0.50;0.28;;;28.90;84.50;;;;;;4176379;28;19928;-50
2022/06/11 11:06:37;;;;;;;0.30;0.30;;;29.20;83.60;;;;;;4175517;28;20102;-49
2022/06/11 11:09:01;;;;;;;;;;;28.70;84.30;;;;;;4176014;28;20413;-50
2022/06/11 11:11:26;;;;;;;2.97;0.30;;;28.80;84.20;;;;;;4175164;28;19964;-49
2022/06/11 11:13:48;;;;;;;0.30;0.30;;;28.60;83.60;;;;;;4173592;28;20146;-49
2022/06/11 11:16:13;;;;;;;1.40;0.30;;;28.90;86.30;;;;;;4096738;28;20062;-51
2022/06/11 11:18:41;;;;;;;2.92;0.30;;;29.40;84.10;;;;;;4091815;28;20050;-51
2022/06/11 11:21:03;;;;;;;0.30;0.30;;;29.50;86.80;;;;;;4095403;29;20050;-49
2022/06/11 11:23:40;;;;;;;0.30;0.30;;;29.30;84.60;;;;;;4080073;29;20133;-50
2022/06/11 11:26:16;;;;;;;0.30;0.30;;;28.70;83.40;;;;;;4088850;29;20085;-52
2022/06/11 11:28:50;;;;;;;0.40;0.30;;;28.70;84.30;;;;;;4094220;29;20101;-49
2022/06/11 11:31:31;;;;;;;0.30;0.30;;;29.00;85.40;;;;;;4093555;29;20054;-52
2022/06/11 11:34:10;;;;;;;2.05;0.30;;;28.90;83.00;;;;;;4094381;29;20062;-51
2022/06/11 11:36:32;;;;;;;0.30;0.30;;;28.60;83.20;;;;;;4080472;29;20061;-51
2022/06/11 11:39:12;;;;;;;0.30;0.30;;;28.60;83.80;;;;;;4094102;29;20138;-53
2022/06/11 11:41:37;;;;;;;0.30;0.30;;;29.20;90.60;;;;;;4094387;29;20377;-52
2022/06/11 11:43:58;;;;;;;2.83;0.30;;;29.50;85.30;;;;;;4094331;29;20533;-52
2022/06/11 11:46:23;;;;;;;1.50;0.30;;;29.70;85.40;;;;;;4093599;29;20062;-51
2022/06/11 11:48:54;;;;;;;0.57;0.30;;;29.70;86.50;;;;;;4093545;29;20058;-50
2022/06/11 11:51:22;;;;;;;2.13;0.30;;;29.90;83.10;;;;;;4093359;29;20119;-49
2022/06/11 11:53:47;;;;;;;0.20;0.20;;;30.00;83.60;;;;;;4080650;29;20062;-50
2022/06/11 11:56:40;;;;;;;0.30;0.30;;;29.80;83.50;;;;;;4093923;29;20560;-51
2022/06/11 11:59:19;;;;;;;1.65;0.30;;;29.20;83.20;;;;;;4078846;29;20118;-51
2022/06/11 12:01:42;;;;;;;0.30;0.30;;;29.40;82.10;;;;;;4092673;29;20521;-51
2022/06/11 12:04:20;;;;;;;0.80;0.30;;;29.90;84.30;;;;;;4082805;29;20131;-51
2022/06/11 12:06:46;;;;;;;0.30;0.30;;;29.80;82.90;;;;;;4092827;29;20050;-50
2022/06/11 12:09:42;;;;;;;0.98;0.30;;;29.50;84.30;;;;;;4094356;29;20130;-52
2022/06/11 12:12:12;;;;;;;0.45;0.30;;;29.70;86.00;;;;;;4166181;28;20106;-52
2022/06/11 12:14:40;;;;;;;0.60;0.30;;;29.50;82.50;;;;;;4100558;28;20066;-51
2022/06/11 12:17:16;;;;;;;0.30;0.30;;;29.40;84.50;;;;;;4087475;28;20140;-51
2022/06/11 12:19:40;;;;;;;0.52;0.30;;;29.00;83.20;;;;;;4093996;29;20054;-50
2022/06/11 12:22:15;;;;;;;0.30;0.30;;;29.20;84.50;;;;;;4092430;29;20051;-52
2022/06/11 12:24:45;;;;;;;0.65;0.28;;;29.30;83.80;;;;;;4092740;29;20407;-48
2022/06/11 12:27:17;;;;;;;0.22;0.22;;;29.90;81.80;;;;;;4092793;29;20128;-51
2022/06/11 12:29:49;;;;;;;0.55;0.30;;;29.90;82.30;;;;;;4086361;29;20104;-50
2022/06/11 12:32:20;;;;;;;0.30;0.30;;;29.90;82.10;;;;;;4091457;29;20402;-52
2022/06/11 12:34:41;;;;;;;0.30;0.30;;;29.40;82.00;;;;;;4093570;29;20062;-52
2022/06/11 12:37:32;;;;;;;0.25;0.25;;;29.70;83.50;;;;;;4093695;29;20062;-50
2022/06/11 12:40:25;;;;;;;0.30;0.30;;;29.80;81.70;;;;;;4093457;29;20057;-51
2022/06/11 12:43:13;;;;;;;0.20;0.20;;;30.00;80.80;;;;;;4089533;29;20146;-51
2022/06/11 12:45:35;;;;;;;0.20;0.20;;;30.20;81.40;;;;;;4086501;29;20054;-50
2022/06/11 12:48:17;;;;;;;0.30;0.30;;;30.50;81.50;;;;;;4089203;29;20550;-50
2022/06/11 12:50:45;;;;;;;0.55;0.20;;;30.70;81.30;;;;;;4090063;29;20514;-52
2022/06/11 12:53:11;;;;;;;1.65;0.65;;;30.10;80.40;;;;;;4078170;29;20054;-48
2022/06/11 12:55:50;;;;;;;0.30;0.30;;;30.50;82.30;;;;;;4088371;29;20126;-47
2022/06/11 12:58:23;;;;;;;0.80;0.30;;;30.90;81.10;;;;;;4094361;29;20055;-51